createdAt,value
2018-05-15T00:03:10.142Z,63.30
2018-05-15T00:08:12.859Z,63.50
2018-05-15T00:13:16.241Z,63.90
2018-05-15T00:18:18.901Z,63.80
2018-05-15T00:23:21.861Z,63.90
2018-05-15T00:28:24.815Z,63.60
2018-05-15T00:33:27.570Z,63.80
2018-05-15T00:38:30.462Z,64.20
2018-05-15T00:43:33.191Z,64.30
2018-05-15T00:48:36.028Z,64.40
2018-05-15T00:53:39.395Z,65.30
2018-05-15T00:58:42.036Z,64.80
2018-05-15T01:03:44.729Z,65.10
2018-05-15T01:08:47.348Z,65.10
2018-05-15T01:13:50.027Z,64.70
2018-05-15T01:18:52.633Z,64.60
2018-05-15T01:23:55.976Z,64.60
2018-05-15T01:28:58.615Z,64.50
2018-05-15T01:34:01.313Z,65.10
2018-05-15T01:39:04.037Z,65.70
2018-05-15T01:44:06.742Z,65.80
2018-05-15T01:49:09.468Z,66.10
2018-05-15T01:54:12.109Z,65.90
2018-05-15T01:59:14.726Z,66.00
2018-05-15T02:04:18.236Z,66.50
2018-05-15T02:09:20.891Z,66.40
2018-05-15T02:14:25.106Z,66.40
2018-05-15T02:19:27.842Z,66.40
2018-05-15T02:24:30.489Z,65.70
2018-05-15T02:29:33.153Z,65.60
2018-05-15T02:34:36.514Z,65.60
2018-05-15T02:39:39.125Z,65.70
2018-05-15T02:44:41.750Z,65.90
2018-05-15T02:49:45.195Z,66.10
2018-05-15T02:54:48.182Z,65.70
2018-05-15T02:59:51.549Z,66.40
2018-05-15T03:04:54.305Z,66.30
2018-05-15T03:09:57.051Z,66.00
2018-05-15T03:14:59.773Z,65.40
2018-05-15T03:20:02.397Z,65.00
2018-05-15T03:25:05.811Z,64.40
2018-05-15T03:30:09.157Z,64.70
2018-05-15T03:35:12.639Z,64.70
2018-05-15T03:40:15.292Z,64.30
2018-05-15T03:45:17.942Z,64.20
2018-05-15T03:50:20.650Z,64.60
2018-05-15T03:55:23.361Z,64.20
2018-05-15T04:00:38.464Z,63.80
2018-05-15T04:05:54.771Z,63.90
2018-05-15T04:10:58.266Z,63.20
2018-05-15T04:16:00.852Z,63.00
2018-05-15T04:21:03.604Z,62.80
2018-05-15T04:26:06.477Z,62.80
2018-05-15T04:31:09.154Z,62.60
2018-05-15T04:36:11.770Z,62.10
2018-05-15T04:41:14.448Z,62.90
2018-05-15T04:46:17.090Z,62.20
2018-05-15T04:51:19.678Z,62.30
2018-05-15T04:56:22.362Z,62.70
2018-05-15T05:01:25.797Z,62.60
2018-05-15T05:06:28.463Z,62.60
2018-05-15T05:11:31.137Z,62.20
2018-05-15T05:16:35.240Z,62.10
2018-05-15T05:21:37.838Z,62.10
2018-05-15T05:26:40.411Z,62.60
2018-05-15T05:31:43.021Z,62.90
2018-05-15T05:36:45.650Z,62.00
2018-05-15T05:41:49.043Z,61.80
2018-05-15T05:46:51.675Z,61.80
2018-05-15T05:51:55.221Z,61.40
2018-05-15T05:56:57.747Z,60.20
2018-05-15T06:02:01.880Z,59.70
2018-05-15T06:07:04.515Z,59.30
2018-05-15T06:12:07.745Z,59.80
2018-05-15T06:17:10.334Z,58.90
2018-05-15T06:22:13.770Z,58.40
2018-05-15T06:27:17.143Z,57.70
2018-05-15T06:32:19.801Z,57.60
2018-05-15T06:37:22.742Z,57.60
2018-05-15T06:42:25.320Z,57.20
2018-05-15T06:47:28.056Z,57.00
2018-05-15T06:52:30.669Z,55.70
2018-05-15T06:57:33.274Z,55.10
2018-05-15T07:02:36.855Z,55.40
2018-05-15T07:07:39.505Z,53.50
2018-05-15T07:12:42.068Z,53.00
2018-05-15T07:17:44.796Z,53.80
2018-05-15T07:22:48.148Z,51.60
2018-05-15T07:27:51.574Z,50.40
2018-05-15T07:32:54.293Z,51.80
2018-05-15T07:37:56.889Z,51.30
2018-05-15T07:42:59.489Z,49.20
2018-05-15T07:48:02.123Z,50.00
2018-05-15T07:53:04.832Z,49.60
2018-05-15T07:58:07.441Z,49.60
2018-05-15T08:03:10.058Z,49.80
2018-05-15T08:08:12.584Z,49.50
2018-05-15T08:13:15.264Z,49.10
2018-05-15T08:18:17.971Z,48.10
2018-05-15T08:23:20.542Z,48.60
2018-05-15T08:28:23.337Z,48.30
2018-05-15T08:33:26.014Z,46.80
2018-05-15T08:38:28.626Z,46.30
2018-05-15T08:43:31.429Z,45.90
2018-05-15T08:48:34.109Z,46.30
2018-05-15T08:53:37.330Z,46.30
2018-05-15T08:58:40.056Z,46.10
2018-05-15T09:03:42.707Z,46.00
2018-05-15T09:08:45.332Z,45.80
2018-05-15T09:13:48.812Z,44.40
2018-05-15T09:18:51.474Z,44.70
2018-05-15T09:23:54.177Z,45.50
2018-05-15T09:28:57.648Z,44.10
2018-05-15T09:34:00.311Z,44.00
2018-05-15T09:39:02.997Z,44.30
2018-05-15T09:44:05.687Z,43.90
2018-05-15T09:49:08.410Z,41.50
2018-05-15T09:54:11.137Z,41.60
2018-05-15T09:59:14.611Z,41.60
2018-05-15T10:04:18.169Z,41.50
2018-05-15T10:09:20.745Z,40.10
2018-05-15T10:14:23.396Z,39.90
2018-05-15T10:19:26.055Z,40.40
2018-05-15T10:24:28.836Z,40.90
2018-05-15T10:29:32.387Z,41.70
2018-05-15T10:34:35.045Z,38.60
2018-05-15T10:39:37.658Z,40.40
2018-05-15T10:44:41.261Z,39.90
2018-05-15T10:49:43.879Z,40.30
2018-05-15T10:54:46.496Z,40.40
2018-05-15T10:59:49.104Z,41.20
2018-05-15T11:04:51.724Z,40.30
2018-05-15T11:09:54.564Z,40.30
2018-05-15T11:14:58.047Z,40.30
2018-05-15T11:20:12.651Z,39.20
2018-05-15T11:25:15.334Z,40.30
2018-05-15T11:30:18.063Z,39.50
2018-05-15T11:35:20.730Z,37.30
2018-05-15T11:40:24.634Z,39.40
2018-05-15T11:45:27.945Z,39.50
2018-05-15T11:50:31.285Z,39.60
2018-05-15T11:55:35.295Z,39.10
2018-05-15T12:00:35.906Z,39.00
2018-05-15T12:05:39.779Z,39.10
2018-05-15T12:10:42.511Z,39.20
2018-05-15T12:15:46.570Z,39.00
2018-05-15T12:20:50.286Z,38.90
2018-05-15T12:25:54.527Z,38.30
2018-05-15T12:30:57.390Z,39.30
2018-05-15T12:36:00.059Z,39.30
2018-05-15T12:41:02.732Z,39.40
2018-05-15T12:46:05.502Z,38.90
2018-05-15T12:51:09.137Z,37.60
2018-05-15T12:56:11.806Z,37.50
2018-05-15T13:01:14.549Z,36.60
2018-05-15T13:06:17.178Z,33.10
2018-05-15T13:11:20.402Z,34.40
2018-05-15T13:16:23.083Z,35.80
2018-05-15T13:21:25.721Z,35.50
2018-05-15T13:26:28.326Z,35.40
2018-05-15T13:31:30.952Z,35.30
2018-05-15T13:36:33.683Z,36.00
2018-05-15T13:41:37.230Z,34.50
2018-05-15T13:46:39.921Z,34.40
2018-05-15T13:51:42.565Z,35.70
2018-05-15T13:56:45.340Z,35.20
2018-05-15T14:01:48.782Z,35.50
2018-05-15T14:06:51.471Z,35.80
2018-05-15T14:11:54.159Z,36.80
2018-05-15T14:16:56.741Z,37.60
2018-05-15T14:22:00.169Z,37.10
2018-05-15T14:27:03.158Z,37.00
2018-05-15T14:32:05.809Z,37.70
2018-05-15T14:37:08.828Z,42.00
2018-05-15T14:42:23.296Z,49.80
2018-05-15T14:47:25.870Z,53.80
2018-05-15T14:52:29.304Z,53.40
2018-05-15T14:57:31.877Z,53.90
2018-05-15T15:02:34.437Z,52.30
2018-05-15T15:07:37.010Z,51.80
2018-05-15T15:12:39.567Z,54.10
2018-05-15T15:17:42.232Z,56.70
2018-05-15T15:22:45.569Z,57.30
2018-05-15T15:27:48.268Z,58.00
2018-05-15T15:32:50.874Z,58.10
2018-05-15T15:37:53.532Z,58.40
2018-05-15T15:42:57.063Z,59.10
2018-05-15T15:48:00.176Z,60.30
2018-05-15T15:53:04.338Z,61.10
2018-05-15T15:58:08.057Z,61.20
2018-05-15T16:03:12.039Z,61.60
2018-05-15T16:08:15.164Z,61.70
2018-05-15T16:13:18.073Z,61.70
2018-05-15T16:18:22.643Z,62.30
2018-05-15T16:23:25.788Z,62.50
2018-05-15T16:28:30.976Z,63.10
2018-05-15T16:33:34.413Z,63.20
2018-05-15T16:38:39.340Z,62.30
2018-05-15T16:43:42.757Z,62.70
2018-05-15T16:48:48.313Z,63.10
2018-05-15T16:53:53.323Z,63.70
2018-05-15T16:58:56.998Z,64.00
2018-05-15T17:04:04.574Z,64.10
2018-05-15T17:09:09.856Z,63.70
2018-05-15T17:14:18.149Z,63.60
2018-05-15T17:19:21.140Z,63.30
2018-05-15T17:24:23.870Z,63.80
2018-05-15T17:29:26.726Z,63.80
2018-05-15T17:34:29.802Z,62.40
2018-05-15T17:39:35.305Z,61.30
2018-05-15T17:44:38.909Z,60.90
2018-05-15T17:49:43.483Z,61.20
2018-05-15T17:54:47.168Z,61.30
2018-05-15T17:59:51.905Z,62.80
2018-05-15T18:04:55.960Z,64.10
2018-05-15T18:09:59.331Z,64.30
2018-05-15T18:15:05.741Z,64.90
2018-05-15T18:20:09.403Z,65.20
2018-05-15T18:25:13.046Z,65.40
2018-05-15T18:30:16.884Z,65.40
2018-05-15T18:35:19.971Z,65.20
2018-05-15T18:45:29.850Z,65.10
2018-05-15T18:50:33.010Z,65.30
2018-05-15T18:55:35.865Z,65.60
2018-05-15T19:00:42.979Z,65.70
2018-05-15T19:05:46.221Z,65.50
2018-05-15T19:10:51.153Z,66.20
2018-05-15T19:15:54.889Z,66.10
2018-05-15T19:20:59.625Z,66.60
2018-05-15T19:26:03.666Z,66.50
2018-05-15T19:31:06.813Z,66.60
2018-05-15T19:36:11.369Z,66.60
2018-05-15T19:41:19.947Z,67.60
2018-05-15T19:46:22.941Z,67.60
2018-05-15T19:51:26.277Z,67.40
2018-05-15T19:56:29.268Z,68.00
2018-05-15T20:01:31.881Z,67.40
2018-05-15T20:06:34.595Z,67.80
2018-05-15T20:11:39.567Z,68.30
2018-05-15T20:16:43.732Z,68.30
2018-05-15T20:21:48.082Z,68.50
2018-05-15T20:26:50.857Z,68.40
2018-05-15T20:31:54.247Z,68.60
2018-05-15T20:36:57.750Z,69.00
2018-05-15T20:42:03.922Z,69.60
2018-05-15T20:47:06.555Z,69.20
2018-05-15T20:52:09.663Z,69.80
2018-05-15T20:57:12.637Z,69.90
2018-05-15T21:02:15.694Z,70.60
2018-05-15T21:07:18.497Z,70.50
2018-05-15T21:12:21.527Z,71.00
2018-05-15T21:17:24.820Z,70.70
2018-05-15T21:22:27.614Z,71.20
2018-05-15T21:27:30.466Z,71.10
2018-05-15T21:32:35.151Z,71.30
2018-05-15T21:37:38.596Z,71.20
2018-05-15T21:42:41.576Z,71.70
2018-05-15T21:47:45.584Z,71.70
2018-05-15T21:52:48.503Z,71.50
2018-05-15T21:57:51.277Z,71.50
2018-05-15T22:02:54.202Z,71.80
2018-05-15T22:07:57.180Z,71.90
2018-05-15T22:13:11.982Z,72.10
2018-05-15T22:18:28.306Z,72.30
2018-05-15T22:23:30.708Z,72.50
2018-05-15T22:33:41.310Z,72.80
2018-05-15T22:38:44.383Z,73.10
2018-05-15T22:43:47.353Z,73.20
2018-05-15T22:48:51.029Z,73.10
2018-05-15T22:53:54.196Z,73.20
2018-05-15T22:58:57.646Z,73.30
2018-05-15T23:04:04.024Z,72.90
2018-05-15T23:09:10.449Z,73.40
2018-05-15T23:14:13.200Z,73.30
2018-05-15T23:19:16.187Z,73.80
2018-05-15T23:24:18.906Z,73.80
2018-05-15T23:29:22.308Z,73.90
2018-05-15T23:34:25.603Z,73.50
2018-05-15T23:39:28.599Z,74.00
2018-05-15T23:44:31.756Z,74.10
2018-05-15T23:49:35.228Z,74.00
2018-05-15T23:54:38.623Z,74.20
2018-05-15T23:59:42.105Z,74.70
